Strona główna
METAR-TAF:

METAR-TAF

Lotnisko :

Port lotniczy Luksemburg

Luksemburg, Luksemburg

Szerokość geograficzna: 49-37N, Długość geograficzna: 006-13E, wysokość: 376 m

Aktualna obserwacja pogody

Raport powstał 28 minut temu, godzina 03:20 UTC
Wiatr 8 kt od północ
Temperatura 13°C
Wilgotność 82%
Ciśnienie 1022 hPa
Widzialność 10 km lub więcej
Rozproszone chmury na wysokości 1600 ft
Rozproszone chmury na wysokości 1800 ft

METAR: ELLX 250320Z 36008KT 9999 SCT016 SCT018 13/10 Q1022 NOSIG

czas: 05:48 (03:48 UTC)

Prognoza

Raport powstał 4 godziny i 48 minut temu, godzina 23:00 UTC
Prognoza ważna od 25 godzina 00 UTC do 26 godzina 06 UTC
Wiatr 7 kt od północ
Widzialność 10 km lub więcej
Przerywane chmury na wysokości 4000 ft
Przejściowo
od 25 godzina 03 UTC do 25 godzina 09 UTC
Przerywane chmury na wysokości 1400 ft

TAF: ELLX 242300Z 2500/2606 36007KT 9999 BKN040 TEMPO 2503/2509 BKN014

Obserwacja i prognoza pogody dla ponad 4000 lotnisk (raport METAR i TAF).

Dostępne stacje oznaczono żółtymi i czerwonymi punktami na mapie.

Najedź kursorem aby zobaczyć nazwę stacji.

Kliknij aby zobaczyć obserwacje i prognozy pogody.

Aby zmienić mapę: kliknij na zielony przycisk z czarnym krzyżykiem, aby powiększyć; na zielony przycisk z myślnikiem, aby pomniejszyć; na zielone strzałki, aby przejść do map sąsiednich.


METAR-TAF: